createdAt,value
2023-03-24T00:00:40.065Z,87.58
2023-03-24T00:05:44.307Z,87.54
2023-03-24T00:10:48.879Z,87.24
2023-03-24T00:15:52.118Z,87.19
2023-03-24T00:20:59.318Z,87.33
2023-03-24T00:26:06.211Z,87.56
2023-03-24T00:31:10.544Z,87.59
2023-03-24T00:36:14.226Z,88.56
2023-03-24T00:41:20.587Z,89.02
2023-03-24T00:46:28.291Z,88.81
2023-03-24T00:51:38.844Z,88.79
2023-03-24T00:56:43.953Z,89.20
2023-03-24T01:01:47.391Z,89.24
2023-03-24T01:06:52.720Z,89.39
2023-03-24T01:11:56.513Z,88.57
2023-03-24T01:17:01.163Z,88.70
2023-03-24T01:22:04.924Z,88.44
2023-03-24T01:27:08.769Z,87.44
2023-03-24T01:32:12.987Z,87.62
2023-03-24T01:37:16.582Z,87.00
2023-03-24T01:42:23.751Z,85.87
2023-03-24T01:47:26.924Z,85.36
2023-03-24T01:52:33.595Z,82.75
2023-03-24T01:57:42.697Z,81.12
2023-03-24T02:02:56.867Z,81.30
2023-03-24T02:08:19.265Z,82.20
2023-03-24T02:13:24.065Z,83.51
2023-03-24T02:18:33.442Z,83.88
2023-03-24T02:23:56.084Z,83.71
2023-03-24T02:29:20.690Z,83.22
2023-03-24T02:34:23.832Z,82.00
2023-03-24T02:40:08.645Z,77.87
2023-03-24T02:45:46.016Z,77.50
2023-03-24T02:50:53.335Z,77.74
2023-03-24T02:56:03.783Z,78.07
2023-03-24T03:01:11.240Z,78.39
2023-03-24T03:06:53.724Z,77.44
2023-03-24T03:12:00.857Z,77.92
2023-03-24T03:17:14.914Z,77.97
2023-03-24T03:22:23.979Z,77.39
2023-03-24T03:27:31.806Z,75.62
2023-03-24T03:32:41.255Z,74.22
2023-03-24T03:38:10.197Z,73.52
2023-03-24T03:43:13.524Z,73.74
2023-03-24T03:48:17.654Z,73.82
2023-03-24T03:53:27.566Z,74.23
2023-03-24T03:58:31.530Z,73.90
2023-03-24T04:03:46.506Z,74.74
2023-03-24T04:08:53.611Z,72.40
2023-03-24T04:14:14.656Z,69.37
2023-03-24T04:19:29.389Z,68.88
2023-03-24T04:25:02.492Z,67.35
2023-03-24T04:30:53.179Z,68.10
2023-03-24T04:36:42.638Z,68.97
2023-03-24T04:42:26.523Z,69.94
2023-03-24T04:47:34.302Z,69.36
2023-03-24T04:52:48.855Z,68.23
2023-03-24T04:57:54.113Z,68.28
2023-03-24T05:02:58.161Z,68.36
2023-03-24T05:08:04.539Z,67.88
2023-03-24T05:13:09.168Z,65.93
2023-03-24T05:18:28.099Z,60.29
2023-03-24T05:23:34.566Z,60.18
2023-03-24T05:28:38.412Z,61.99
2023-03-24T05:33:42.483Z,61.93
2023-03-24T05:38:51.288Z,61.21
2023-03-24T05:43:55.298Z,61.26
2023-03-24T05:48:58.988Z,60.66
2023-03-24T05:54:07.751Z,59.66
2023-03-24T05:59:23.116Z,60.11
2023-03-24T06:04:30.767Z,61.16
2023-03-24T06:09:42.769Z,58.09
2023-03-24T06:14:49.434Z,56.21
2023-03-24T06:19:52.777Z,53.49
2023-03-24T06:25:17.188Z,40.61
2023-03-24T06:30:31.324Z,36.27
2023-03-24T06:35:35.773Z,32.48
2023-03-24T06:40:46.741Z,31.36
2023-03-24T06:45:51.487Z,31.24
2023-03-24T06:50:58.708Z,28.49
2023-03-24T06:56:02.735Z,28.97
2023-03-24T07:01:15.316Z,26.63
2023-03-24T07:06:34.467Z,26.06
2023-03-24T07:11:47.761Z,25.95
2023-03-24T07:16:52.558Z,25.19
2023-03-24T07:22:29.516Z,24.53
2023-03-24T07:27:58.885Z,23.53
2023-03-24T07:33:04.385Z,23.18
2023-03-24T07:38:08.843Z,23.75
2023-03-24T07:43:12.997Z,24.24
2023-03-24T07:48:42.977Z,22.23
2023-03-24T07:53:48.107Z,22.93
2023-03-24T07:59:00.870Z,24.45
2023-03-24T08:04:14.486Z,24.84
2023-03-24T08:09:36.560Z,23.44
2023-03-24T08:14:39.953Z,24.61
2023-03-24T08:19:58.240Z,24.39
2023-03-24T08:25:03.996Z,25.06
2023-03-24T08:30:10.860Z,24.42
2023-03-24T08:35:16.194Z,24.27
2023-03-24T08:40:24.507Z,22.90
2023-03-24T08:45:31.143Z,24.13
2023-03-24T08:50:38.784Z,24.21
2023-03-24T08:55:43.658Z,24.66
2023-03-24T09:00:48.375Z,25.15
2023-03-24T09:05:51.994Z,24.25
2023-03-24T09:10:55.300Z,23.80
2023-03-24T09:16:02.395Z,23.52
2023-03-24T09:21:07.688Z,26.81
2023-03-24T09:26:10.923Z,24.57
2023-03-24T09:31:14.918Z,23.60
2023-03-24T09:36:18.708Z,24.54
2023-03-24T09:41:34.378Z,24.73
2023-03-24T09:46:42.139Z,23.72
2023-03-24T09:51:46.927Z,24.42
2023-03-24T09:56:52.313Z,24.96
2023-03-24T10:01:57.462Z,24.75
2023-03-24T10:07:26.152Z,24.59
2023-03-24T10:12:40.455Z,25.53
2023-03-24T10:18:05.099Z,24.64
2023-03-24T10:23:21.986Z,24.45
2023-03-24T10:28:40.684Z,24.50
2023-03-24T10:33:46.746Z,25.54
2023-03-24T10:38:50.317Z,25.55
2023-03-24T10:43:57.515Z,25.95
2023-03-24T10:49:18.259Z,27.84
2023-03-24T10:54:24.881Z,24.21
2023-03-24T10:59:37.098Z,25.28
2023-03-24T11:04:44.303Z,25.51
2023-03-24T11:10:19.515Z,26.34
2023-03-24T11:15:25.197Z,26.19
2023-03-24T11:20:36.603Z,35.42
2023-03-24T11:25:42.321Z,37.02
2023-03-24T11:30:57.348Z,39.43
2023-03-24T11:36:08.450Z,36.03
2023-03-24T11:41:27.540Z,35.94
2023-03-24T11:46:47.396Z,36.03
2023-03-24T11:52:02.001Z,36.73
2023-03-24T11:57:15.567Z,36.75
2023-03-24T12:02:46.417Z,37.35
2023-03-24T12:07:56.799Z,38.96
2023-03-24T12:13:32.281Z,38.53
2023-03-24T12:18:55.046Z,36.13
2023-03-24T12:24:03.020Z,40.29
2023-03-24T12:29:12.719Z,40.59
2023-03-24T12:34:39.351Z,38.55
2023-03-24T12:40:27.463Z,38.68
2023-03-24T12:45:31.443Z,39.05
2023-03-24T12:51:05.789Z,39.25
2023-03-24T12:56:13.019Z,39.89
2023-03-24T13:01:36.515Z,39.89
2023-03-24T13:06:53.640Z,39.78
2023-03-24T13:12:20.714Z,38.48
2023-03-24T13:17:45.299Z,39.01
2023-03-24T13:22:50.723Z,39.92
2023-03-24T13:27:54.909Z,38.52
2023-03-24T13:33:21.936Z,39.25
2023-03-24T13:38:48.730Z,37.20
2023-03-24T13:43:59.940Z,39.21
2023-03-24T13:49:07.205Z,39.08
2023-03-24T13:54:19.533Z,39.33
2023-03-24T13:59:32.175Z,40.15
2023-03-24T14:05:01.761Z,41.56
2023-03-24T14:10:17.864Z,39.59
2023-03-24T14:15:33.296Z,39.37
2023-03-24T14:20:43.246Z,41.21
2023-03-24T14:25:55.040Z,40.54
2023-03-24T14:31:13.577Z,42.08
2023-03-24T14:36:26.328Z,40.41
2023-03-24T14:41:34.677Z,40.68
2023-03-24T14:46:40.234Z,41.13
2023-03-24T14:51:56.153Z,40.24
2023-03-24T14:57:00.260Z,39.66
2023-03-24T15:02:27.073Z,41.36
2023-03-24T15:07:31.282Z,42.59
2023-03-24T15:12:35.347Z,41.68
2023-03-24T15:17:42.681Z,43.07
2023-03-24T15:22:46.841Z,43.10
2023-03-24T15:27:52.420Z,43.04
2023-03-24T15:32:56.178Z,40.39
2023-03-24T15:38:00.196Z,43.86
2023-03-24T15:43:07.198Z,46.17
2023-03-24T15:48:21.558Z,46.19
2023-03-24T15:53:30.504Z,46.94
2023-03-24T15:58:46.040Z,46.52
2023-03-24T16:03:49.877Z,46.35
2023-03-24T16:08:53.777Z,46.56
2023-03-24T16:13:57.206Z,48.35
2023-03-24T16:19:01.895Z,48.86
2023-03-24T16:24:05.790Z,48.69
2023-03-24T16:29:18.082Z,50.76
2023-03-24T16:34:22.794Z,50.91
2023-03-24T16:39:28.616Z,51.34
2023-03-24T16:44:32.066Z,51.99
2023-03-24T16:49:35.862Z,53.35
2023-03-24T16:54:40.371Z,55.93
2023-03-24T16:59:43.517Z,57.25
2023-03-24T17:04:47.978Z,59.50
2023-03-24T17:09:52.354Z,61.83
2023-03-24T17:14:56.257Z,62.92
2023-03-24T17:20:00.370Z,64.31
2023-03-24T17:25:04.930Z,66.10
2023-03-24T17:30:11.610Z,67.08
2023-03-24T17:35:18.552Z,68.28
2023-03-24T17:40:22.843Z,69.94
2023-03-24T17:45:25.953Z,71.85
2023-03-24T17:50:31.084Z,73.74
2023-03-24T17:55:34.783Z,74.34
2023-03-24T18:00:38.233Z,75.15
2023-03-24T18:05:43.643Z,75.01
2023-03-24T18:10:47.023Z,75.62
2023-03-24T18:15:50.788Z,74.21
2023-03-24T18:20:54.403Z,72.86
2023-03-24T18:26:01.254Z,72.18
2023-03-24T18:31:16.459Z,71.98
2023-03-24T18:36:26.863Z,72.08
2023-03-24T18:41:31.162Z,71.37
2023-03-24T18:46:37.127Z,71.93
2023-03-24T18:51:42.321Z,72.50
2023-03-24T18:56:46.488Z,74.08
2023-03-24T19:01:51.161Z,74.54
2023-03-24T19:06:54.617Z,75.79
2023-03-24T19:11:58.481Z,76.92
2023-03-24T19:17:02.469Z,76.34
2023-03-24T19:22:07.577Z,76.78
2023-03-24T19:27:11.808Z,77.79
2023-03-24T19:32:15.180Z,78.66
2023-03-24T19:37:20.518Z,78.62
2023-03-24T19:42:26.508Z,77.43
2023-03-24T19:47:30.112Z,76.49
2023-03-24T19:52:33.762Z,76.75
2023-03-24T19:57:37.619Z,76.67
2023-03-24T20:02:42.137Z,76.90
2023-03-24T20:07:46.168Z,77.00
2023-03-24T20:12:49.908Z,75.93
2023-03-24T20:17:53.701Z,75.75
2023-03-24T20:22:58.528Z,76.03
2023-03-24T20:28:01.811Z,77.05
2023-03-24T20:33:05.283Z,78.02
2023-03-24T20:38:08.868Z,80.14
2023-03-24T20:43:12.518Z,81.11
2023-03-24T20:48:16.757Z,81.93
2023-03-24T20:53:21.177Z,82.79
2023-03-24T20:58:25.192Z,83.17
2023-03-24T21:03:28.415Z,84.05
2023-03-24T21:08:32.349Z,84.84
2023-03-24T21:13:37.892Z,85.01
2023-03-24T21:18:42.951Z,84.92
2023-03-24T21:23:47.042Z,84.18
2023-03-24T21:28:50.284Z,84.43
2023-03-24T21:33:56.715Z,84.82
2023-03-24T21:39:00.564Z,84.95
2023-03-24T21:44:05.878Z,85.20
2023-03-24T21:49:11.423Z,85.97
2023-03-24T21:54:15.458Z,86.07
2023-03-24T21:59:18.633Z,86.54
2023-03-24T22:04:22.291Z,85.95
2023-03-24T22:09:28.092Z,86.02
2023-03-24T22:14:32.132Z,86.71
2023-03-24T22:19:35.978Z,86.80
2023-03-24T22:24:40.904Z,86.83
2023-03-24T22:29:44.706Z,87.15
2023-03-24T22:34:48.318Z,87.38
2023-03-24T22:39:51.611Z,87.78
2023-03-24T22:44:54.725Z,89.05
2023-03-24T22:49:57.787Z,89.41
2023-03-24T22:55:01.567Z,89.37
2023-03-24T23:00:06.788Z,89.64
2023-03-24T23:05:10.781Z,89.77
2023-03-24T23:10:14.099Z,90.31
2023-03-24T23:15:18.375Z,89.80
2023-03-24T23:20:23.100Z,89.07
2023-03-24T23:25:26.375Z,89.09
2023-03-24T23:30:30.083Z,90.03
2023-03-24T23:35:34.245Z,90.65
2023-03-24T23:40:38.229Z,90.88
2023-03-24T23:45:41.879Z,90.55
2023-03-24T23:50:49.840Z,90.52
2023-03-24T23:55:58.087Z,90.13
